PWSweather.com
Personal Weather Stations
Station Observations
INORDPAS37
Bondues, BonduesFR 59910

BonduesBonduesFR 59910

Lat: 50.7, Lon: 3.09

Elevation: 102

Station Type: Netatmo

http://bondues.meteoamikuze.com

High Low Average
Temperature 42.6°F5.9°C 32.0°F0.0°C 36.6°F2.6°C
Dew Point 26.6°F-3.0°C 19.9°F-6.7°C 23.0°F-5.0°C
Winds 8.1 mph 13.0 kmh 1.8 mph 2.9 kmh 4.0 mph S6.4 kmh S
Wind Gusts 21.0 mph33.8 kmh 3.8 mph6.1 kmh 10.0 mph16.1 kmh
Humidity 70% 53% 63%
Pressure 29.99 in1015.6 mb 29.71 in1006.1 mb -
Precipitation 0.00 in0.0 mm - -
Hour Temp Dew Point Humidity Winds Wind Gusts Pressure Precip Precip Rate Daily Precip Total
12:07 AM 34.5°F1.4°C 21.9°F-5.6°C 65% 3.1 mph SW5.0 kmh SW 6.9 mph11.1 kmh 29.99 in1015.6 mb 0.00 in0.0 mm 0.00 in0.0 mm 0.00 in0.0 mm
12:28 AM 34.5°F1.4°C 21.9°F-5.6°C 65% 3.1 mph SW5.0 kmh SW 6.9 mph11.1 kmh 29.99 in1015.6 mb 0.00 in0.0 mm 0.00 in0.0 mm 0.00 in0.0 mm
12:48 AM 34.5°F1.4°C 22.3°F-5.4°C 66% 3.1 mph SW5.0 kmh SW 8.1 mph13.0 kmh 29.99 in1015.6 mb 0.00 in0.0 mm 0.00 in0.0 mm 0.00 in0.0 mm
01:08 AM 34.5°F1.4°C 22.3°F-5.4°C 66% 2.5 mph SW4.0 kmh SW 9.8 mph15.8 kmh 29.98 in1015.2 mb 0.00 in0.0 mm 0.00 in0.0 mm 0.00 in0.0 mm
01:28 AM 34.5°F1.4°C 22.3°F-5.4°C 66% 3.1 mph SW5.0 kmh SW 7.4 mph11.9 kmh 29.98 in1015.2 mb 0.00 in0.0 mm 0.00 in0.0 mm 0.00 in0.0 mm
01:48 AM 34.5°F1.4°C 22.3°F-5.4°C 66% 2.5 mph SW4.0 kmh SW 7.4 mph11.9 kmh 29.97 in1014.9 mb 0.00 in0.0 mm 0.00 in0.0 mm 0.00 in0.0 mm
02:08 AM 34.7°F1.5°C 22.8°F-5.1°C 67% 3.1 mph SW5.0 kmh SW 8.7 mph14.0 kmh 29.96 in1014.6 mb 0.00 in0.0 mm 0.00 in0.0 mm 0.00 in0.0 mm
02:28 AM 34.7°F1.5°C 22.8°F-5.1°C 67% 3.1 mph S5.0 kmh S 7.4 mph11.9 kmh 29.96 in1014.6 mb 0.00 in0.0 mm 0.00 in0.0 mm 0.00 in0.0 mm
02:48 AM 34.2°F1.2°C 22.3°F-5.4°C 67% 1.8 mph S2.9 kmh S 5.6 mph9.0 kmh 29.96 in1014.6 mb 0.00 in0.0 mm 0.00 in0.0 mm 0.00 in0.0 mm
03:09 AM 33.4°F0.8°C 21.6°F-5.8°C 67% 2.5 mph S4.0 kmh S 4.9 mph7.9 kmh 29.94 in1013.9 mb 0.00 in0.0 mm 0.00 in0.0 mm 0.00 in0.0 mm
03:29 AM 33.3°F0.7°C 21.4°F-5.9°C 67% 1.8 mph S2.9 kmh S 4.3 mph6.9 kmh 29.93 in1013.5 mb 0.00 in0.0 mm 0.00 in0.0 mm 0.00 in0.0 mm
03:49 AM 33.1°F0.6°C 21.2°F-6.0°C 67% 2.5 mph SSW4.0 kmh SSW 9.4 mph15.1 kmh 29.92 in1013.2 mb 0.00 in0.0 mm 0.00 in0.0 mm 0.00 in0.0 mm
04:15 AM 33.1°F0.6°C 21.2°F-6.0°C 67% 3.1 mph S5.0 kmh S 4.9 mph7.9 kmh 29.92 in1013.2 mb 0.00 in0.0 mm 0.00 in0.0 mm 0.00 in0.0 mm
04:35 AM 32.9°F0.5°C 21.4°F-5.9°C 68% 3.1 mph S5.0 kmh S 6.9 mph11.1 kmh 29.91 in1012.9 mb 0.00 in0.0 mm 0.00 in0.0 mm 0.00 in0.0 mm
04:55 AM 32.5°F0.3°C 21.2°F-6.0°C 68% 1.8 mph S2.9 kmh S 3.8 mph6.1 kmh 29.91 in1012.9 mb 0.00 in0.0 mm 0.00 in0.0 mm 0.00 in0.0 mm
05:15 AM 32.2°F0.1°C 20.8°F-6.2°C 68% 1.8 mph S2.9 kmh S 4.3 mph6.9 kmh 29.89 in1012.2 mb 0.00 in0.0 mm 0.00 in0.0 mm 0.00 in0.0 mm
05:35 AM 32.0°F0.0°C 20.7°F-6.3°C 68% 2.5 mph S4.0 kmh S 4.9 mph7.9 kmh 29.90 in1012.5 mb 0.00 in0.0 mm 0.00 in0.0 mm 0.00 in0.0 mm
05:55 AM 32.0°F0.0°C 20.7°F-6.3°C 68% 3.1 mph S5.0 kmh S 7.4 mph11.9 kmh 29.89 in1012.2 mb 0.00 in0.0 mm 0.00 in0.0 mm 0.00 in0.0 mm
06:15 AM 32.0°F0.0°C 20.7°F-6.3°C 68% 1.8 mph S2.9 kmh S 4.9 mph7.9 kmh 29.89 in1012.2 mb 0.00 in0.0 mm 0.00 in0.0 mm 0.00 in0.0 mm
06:35 AM 32.0°F0.0°C 21.0°F-6.1°C 69% 2.5 mph S4.0 kmh S 6.9 mph11.1 kmh 29.88 in1011.9 mb 0.00 in0.0 mm 0.00 in0.0 mm 0.00 in0.0 mm
06:55 AM 32.0°F0.0°C 21.0°F-6.1°C 69% 3.1 mph S5.0 kmh S 8.1 mph13.0 kmh 29.87 in1011.5 mb 0.00 in0.0 mm 0.00 in0.0 mm 0.00 in0.0 mm
07:01 AM 32.0°F0.0°C 21.0°F-6.1°C 69% 3.1 mph SSE5.0 kmh SSE 6.9 mph11.1 kmh 29.86 in1011.2 mb 0.00 in0.0 mm 0.00 in0.0 mm 0.00 in0.0 mm
07:35 AM 32.0°F0.0°C 21.0°F-6.1°C 69% 3.1 mph S5.0 kmh S 7.4 mph11.9 kmh 29.86 in1011.2 mb 0.00 in0.0 mm 0.00 in0.0 mm 0.00 in0.0 mm
07:41 AM 32.0°F0.0°C 21.0°F-6.1°C 69% 3.8 mph SSE6.1 kmh SSE 8.7 mph14.0 kmh 29.85 in1010.8 mb 0.00 in0.0 mm 0.00 in0.0 mm 0.00 in0.0 mm
08:01 AM 32.0°F0.0°C 21.4°F-5.9°C 70% 4.9 mph SSE7.9 kmh SSE 11.2 mph18.0 kmh 29.84 in1010.5 mb 0.00 in0.0 mm 0.00 in0.0 mm 0.00 in0.0 mm
08:21 AM 32.0°F0.0°C 21.4°F-5.9°C 70% 3.8 mph SSE6.1 kmh SSE 9.8 mph15.8 kmh 29.83 in1010.2 mb 0.00 in0.0 mm 0.00 in0.0 mm 0.00 in0.0 mm
08:41 AM 32.2°F0.1°C 21.6°F-5.8°C 70% 4.3 mph S6.9 kmh S 11.2 mph18.0 kmh 29.82 in1009.8 mb 0.00 in0.0 mm 0.00 in0.0 mm 0.00 in0.0 mm
09:01 AM 32.5°F0.3°C 21.7°F-5.7°C 70% 4.9 mph SSE7.9 kmh SSE 9.8 mph15.8 kmh 29.82 in1009.8 mb 0.00 in0.0 mm 0.00 in0.0 mm 0.00 in0.0 mm
09:22 AM 33.1°F0.6°C 22.3°F-5.4°C 70% 4.9 mph SSE7.9 kmh SSE 10.5 mph16.9 kmh 29.81 in1009.5 mb 0.00 in0.0 mm 0.00 in0.0 mm 0.00 in0.0 mm
09:41 AM 34.0°F1.1°C 23.2°F-4.9°C 70% 4.3 mph SSE6.9 kmh SSE 9.4 mph15.1 kmh 29.81 in1009.5 mb 0.00 in0.0 mm 0.00 in0.0 mm 0.00 in0.0 mm
10:02 AM 35.6°F2.0°C 24.8°F-4.0°C 70% 4.3 mph S6.9 kmh S 11.9 mph19.2 kmh 29.81 in1009.5 mb 0.00 in0.0 mm 0.00 in0.0 mm 0.00 in0.0 mm
10:22 AM 36.9°F2.7°C 25.2°F-3.8°C 68% 6.9 mph S11.1 kmh S 12.5 mph20.1 kmh 29.80 in1009.1 mb 0.00 in0.0 mm 0.00 in0.0 mm 0.00 in0.0 mm
10:42 AM 37.9°F3.3°C 25.9°F-3.4°C 67% 4.9 mph S7.9 kmh S 11.9 mph19.2 kmh 29.79 in1008.8 mb 0.00 in0.0 mm 0.00 in0.0 mm 0.00 in0.0 mm
11:02 AM 38.8°F3.8°C 26.4°F-3.1°C 66% 5.6 mph S9.0 kmh S 11.2 mph18.0 kmh 29.79 in1008.8 mb 0.00 in0.0 mm 0.00 in0.0 mm 0.00 in0.0 mm
11:22 AM 39.4°F4.1°C 26.6°F-3.0°C 65% 4.9 mph S7.9 kmh S 11.2 mph18.0 kmh 29.78 in1008.5 mb 0.00 in0.0 mm 0.00 in0.0 mm 0.00 in0.0 mm
11:42 AM 39.6°F4.2°C 26.1°F-3.3°C 63% 5.6 mph S9.0 kmh S 14.3 mph23.0 kmh 29.78 in1008.5 mb 0.00 in0.0 mm 0.00 in0.0 mm 0.00 in0.0 mm
12:15 PM 39.4°F4.1°C 25.5°F-3.6°C 62% 5.6 mph S9.0 kmh S 21.0 mph33.8 kmh 29.77 in1008.1 mb 0.00 in0.0 mm 0.00 in0.0 mm 0.00 in0.0 mm
12:23 PM 39.7°F4.3°C 25.7°F-3.5°C 62% 5.6 mph S9.0 kmh S 11.9 mph19.2 kmh 29.76 in1007.8 mb 0.00 in0.0 mm 0.00 in0.0 mm 0.00 in0.0 mm
12:44 PM 41.0°F5.0°C 26.6°F-3.0°C 61% 5.6 mph S9.0 kmh S 16.1 mph25.9 kmh 29.75 in1007.5 mb 0.00 in0.0 mm 0.00 in0.0 mm 0.00 in0.0 mm
01:04 PM 41.4°F5.2°C 26.2°F-3.2°C 59% 8.1 mph S13.0 kmh S 15.0 mph24.1 kmh 29.75 in1007.5 mb 0.00 in0.0 mm 0.00 in0.0 mm 0.00 in0.0 mm
01:24 PM 40.6°F4.8°C 25.9°F-3.4°C 60% 4.3 mph S6.9 kmh S 11.9 mph19.2 kmh 29.74 in1007.1 mb 0.00 in0.0 mm 0.00 in0.0 mm 0.00 in0.0 mm
01:44 PM 41.2°F5.1°C 26.1°F-3.3°C 59% 6.9 mph S11.1 kmh S 15.0 mph24.1 kmh 29.73 in1006.8 mb 0.00 in0.0 mm 0.00 in0.0 mm 0.00 in0.0 mm
02:04 PM 42.1°F5.6°C 26.1°F-3.3°C 57% 7.4 mph S11.9 kmh S 18.1 mph29.1 kmh 29.72 in1006.4 mb 0.00 in0.0 mm 0.00 in0.0 mm 0.00 in0.0 mm
02:24 PM 42.4°F5.8°C 26.1°F-3.3°C 56% 4.9 mph S7.9 kmh S 13.0 mph20.9 kmh 29.72 in1006.4 mb 0.00 in0.0 mm 0.00 in0.0 mm 0.00 in0.0 mm
02:44 PM 42.6°F5.9°C 26.2°F-3.2°C 56% 5.6 mph S9.0 kmh S 11.2 mph18.0 kmh 29.72 in1006.4 mb 0.00 in0.0 mm 0.00 in0.0 mm 0.00 in0.0 mm
03:05 PM 42.4°F5.8°C 25.7°F-3.5°C 55% 6.9 mph S11.1 kmh S 15.0 mph24.1 kmh 29.71 in1006.1 mb 0.00 in0.0 mm 0.00 in0.0 mm 0.00 in0.0 mm
03:25 PM 42.4°F5.8°C 25.0°F-3.9°C 53% 7.4 mph S11.9 kmh S 16.8 mph27.0 kmh 29.71 in1006.1 mb 0.00 in0.0 mm 0.00 in0.0 mm 0.00 in0.0 mm
03:45 PM 42.3°F5.7°C 25.5°F-3.6°C 55% 4.3 mph SSW6.9 kmh SSW 13.6 mph21.9 kmh 29.71 in1006.1 mb 0.00 in0.0 mm 0.00 in0.0 mm 0.00 in0.0 mm
04:05 PM 41.5°F5.3°C 24.8°F-4.0°C 55% 6.9 mph S11.1 kmh S 13.6 mph21.9 kmh 29.72 in1006.4 mb 0.00 in0.0 mm 0.00 in0.0 mm 0.00 in0.0 mm
04:25 PM 41.4°F5.2°C 24.3°F-4.3°C 54% 4.9 mph S7.9 kmh S 11.9 mph19.2 kmh 29.72 in1006.4 mb 0.00 in0.0 mm 0.00 in0.0 mm 0.00 in0.0 mm
04:46 PM 41.0°F5.0°C 24.4°F-4.2°C 55% 4.3 mph S6.9 kmh S 11.2 mph18.0 kmh 29.73 in1006.8 mb 0.00 in0.0 mm 0.00 in0.0 mm 0.00 in0.0 mm
05:15 PM 40.8°F4.9°C 24.3°F-4.3°C 55% 6.9 mph S11.1 kmh S 15.4 mph24.8 kmh 29.73 in1006.8 mb 0.00 in0.0 mm 0.00 in0.0 mm 0.00 in0.0 mm
05:24 PM 40.3°F4.6°C 23.4°F-4.8°C 54% 4.9 mph SSE7.9 kmh SSE 13.0 mph20.9 kmh 29.74 in1007.1 mb 0.00 in0.0 mm 0.00 in0.0 mm 0.00 in0.0 mm
05:44 PM 40.1°F4.5°C 23.2°F-4.9°C 54% 5.6 mph SSE9.0 kmh SSE 12.5 mph20.1 kmh 29.73 in1006.8 mb 0.00 in0.0 mm 0.00 in0.0 mm 0.00 in0.0 mm
06:03 PM 39.7°F4.3°C 23.2°F-4.9°C 55% 5.6 mph SSE9.0 kmh SSE 10.5 mph16.9 kmh 29.73 in1006.8 mb 0.00 in0.0 mm 0.00 in0.0 mm 0.00 in0.0 mm
06:24 PM 39.6°F4.2°C 23.4°F-4.8°C 56% 5.6 mph SSE9.0 kmh SSE 10.5 mph16.9 kmh 29.74 in1007.1 mb 0.00 in0.0 mm 0.00 in0.0 mm 0.00 in0.0 mm
06:44 PM 39.2°F4.0°C 23.4°F-4.8°C 57% 5.6 mph SSE9.0 kmh SSE 13.6 mph21.9 kmh 29.74 in1007.1 mb 0.00 in0.0 mm 0.00 in0.0 mm 0.00 in0.0 mm
07:04 PM 38.8°F3.8°C 23.0°F-5.0°C 57% 4.9 mph SSE7.9 kmh SSE 12.5 mph20.1 kmh 29.74 in1007.1 mb 0.00 in0.0 mm 0.00 in0.0 mm 0.00 in0.0 mm
07:24 PM 38.7°F3.7°C 23.0°F-5.0°C 57% 5.6 mph SSE9.0 kmh SSE 11.9 mph19.2 kmh 29.75 in1007.5 mb 0.00 in0.0 mm 0.00 in0.0 mm 0.00 in0.0 mm
07:49 PM 38.5°F3.6°C 22.8°F-5.1°C 57% 3.8 mph SSE6.1 kmh SSE 9.4 mph15.1 kmh 29.76 in1007.8 mb 0.00 in0.0 mm 0.00 in0.0 mm 0.00 in0.0 mm
08:02 PM 38.3°F3.5°C 23.0°F-5.0°C 58% 3.8 mph SSE6.1 kmh SSE 8.7 mph14.0 kmh 29.76 in1007.8 mb 0.00 in0.0 mm 0.00 in0.0 mm 0.00 in0.0 mm
08:23 PM 37.9°F3.3°C 22.6°F-5.2°C 58% 4.3 mph SSE6.9 kmh SSE 8.7 mph14.0 kmh 29.76 in1007.8 mb 0.00 in0.0 mm 0.00 in0.0 mm 0.00 in0.0 mm
08:48 PM 37.2°F2.9°C 21.9°F-5.6°C 58% 3.1 mph SSE5.0 kmh SSE 8.1 mph13.0 kmh 29.77 in1008.1 mb 0.00 in0.0 mm 0.00 in0.0 mm 0.00 in0.0 mm
09:07 PM 37.2°F2.9°C 21.9°F-5.6°C 58% 3.1 mph SSE5.0 kmh SSE 7.4 mph11.9 kmh 29.78 in1008.5 mb 0.00 in0.0 mm 0.00 in0.0 mm 0.00 in0.0 mm
09:23 PM 37.2°F2.9°C 21.9°F-5.6°C 58% 2.5 mph S4.0 kmh S 6.9 mph11.1 kmh 29.78 in1008.5 mb 0.00 in0.0 mm 0.00 in0.0 mm 0.00 in0.0 mm
09:41 PM 37.0°F2.8°C 21.7°F-5.7°C 58% 3.1 mph SSE5.0 kmh SSE 6.9 mph11.1 kmh 29.78 in1008.5 mb 0.00 in0.0 mm 0.00 in0.0 mm 0.00 in0.0 mm
10:01 PM 36.7°F2.6°C 21.7°F-5.7°C 59% 3.1 mph SSE5.0 kmh SSE 7.4 mph11.9 kmh 29.78 in1008.5 mb 0.00 in0.0 mm 0.00 in0.0 mm 0.00 in0.0 mm
10:26 PM 36.1°F2.3°C 21.2°F-6.0°C 59% 2.5 mph SSE4.0 kmh SSE 6.9 mph11.1 kmh 29.79 in1008.8 mb 0.00 in0.0 mm 0.00 in0.0 mm 0.00 in0.0 mm
10:46 PM 35.6°F2.0°C 20.8°F-6.2°C 59% 2.5 mph S4.0 kmh S 4.9 mph7.9 kmh 29.79 in1008.8 mb 0.00 in0.0 mm 0.00 in0.0 mm 0.00 in0.0 mm
11:07 PM 35.1°F1.7°C 20.7°F-6.3°C 60% 2.5 mph SSE4.0 kmh SSE 4.9 mph7.9 kmh 29.78 in1008.5 mb 0.00 in0.0 mm 0.00 in0.0 mm 0.00 in0.0 mm
11:26 PM 34.7°F1.5°C 20.3°F-6.5°C 60% 2.5 mph SSE4.0 kmh SSE 6.9 mph11.1 kmh 29.78 in1008.5 mb 0.00 in0.0 mm 0.00 in0.0 mm 0.00 in0.0 mm
11:47 PM 34.3°F1.3°C 19.9°F-6.7°C 60% 1.8 mph S2.9 kmh S 4.3 mph6.9 kmh 29.79 in1008.8 mb 0.00 in0.0 mm 0.00 in0.0 mm 0.00 in0.0 mm